Terminal Aerodrome Forecast
Issued by NWS Shreveport, LA

Home | Current Version | Previous Version | Text Only | Print | Product List | Glossary On
Versions: 1 2 3 4 5 6 7 8 9 10 11 12 13
793
FTUS44 KSHV 052340
TAFLFK
TAF
KLFK 052340Z 0600/0624 15005KT P6SM SKC
     FM060600 VRB03KT P6SM BKN120
     FM061500 15005KT 6SM -RA BR OVC035
     FM062200 06005KT P6SM SCT100=

USA.gov is the U.S. government's official web portal to all federal, state and local government web resources and services.